Time;durP1;ratioP1;P1;durP2;ratioP2;P2;SDS_P1;SDS_P2;PMS_P1;PMS_P2;Temp;Humidity;BMP_temperature;BMP_pressure;BME280_temperature;BME280_humidity;BME280_pressure;Samples;Min_cycle;Max_cycle;Signal;HPM_P1;HPM_P2
2024/01/22 00:00:10;;;;;;;13.98;9.48;;;20.10;42.10;;;;;;5069182;28;20154;-78
2024/01/22 00:02:40;;;;;;;13.60;9.75;;;20.00;42.00;;;;;;5052516;28;20047;-77
2024/01/22 00:05:07;;;;;;;14.65;9.52;;;20.00;42.10;;;;;;5068677;28;20109;-77
2024/01/22 00:07:35;;;;;;;15.05;9.98;;;20.00;42.10;;;;;;5069036;28;20074;-76
2024/01/22 00:10:01;;;;;;;14.13;10.13;;;20.00;42.10;;;;;;5068548;28;20044;-77
2024/01/22 00:12:28;;;;;;;14.60;9.45;;;20.00;42.10;;;;;;5068909;28;20074;-75
2024/01/22 00:14:54;;;;;;;16.60;10.30;;;20.00;42.10;;;;;;5068846;28;20094;-77
2024/01/22 00:17:20;;;;;;;18.60;10.95;;;20.00;42.10;;;;;;5104685;28;20126;-77
2024/01/22 00:19:46;;;;;;;16.98;11.20;;;20.10;42.10;;;;;;5093691;28;20066;-77
2024/01/22 00:22:12;;;;;;;16.85;9.65;;;20.00;42.10;;;;;;5093002;28;20474;-77
2024/01/22 00:24:40;;;;;;;13.43;9.35;;;20.00;42.00;;;;;;5111712;28;20451;-77
2024/01/22 00:27:06;;;;;;;13.55;9.93;;;20.00;42.00;;;;;;5111608;28;20044;-77
2024/01/22 00:29:32;;;;;;;24.65;12.50;;;20.00;41.80;;;;;;5111239;28;20052;-77
2024/01/22 00:31:58;;;;;;;20.10;11.23;;;20.10;41.90;;;;;;5112009;28;20092;-77
2024/01/22 00:34:24;;;;;;;18.23;11.05;;;20.10;41.80;;;;;;5111496;28;20034;-77
2024/01/22 00:36:51;;;;;;;14.95;10.73;;;20.20;41.80;;;;;;5111736;28;20035;-77
2024/01/22 00:39:17;;;;;;;16.67;11.20;;;20.20;41.70;;;;;;5042201;28;20057;-77
2024/01/22 00:41:43;;;;;;;16.40;11.25;;;20.20;41.70;;;;;;5112602;28;20031;-77
2024/01/22 00:44:09;;;;;;;14.85;10.00;;;20.40;41.80;;;;;;5130732;27;20050;-77
2024/01/22 00:46:35;;;;;;;15.20;11.15;;;20.30;41.80;;;;;;5113998;28;20062;-77
2024/01/22 00:49:01;;;;;;;17.42;11.63;;;20.30;41.80;;;;;;5109328;28;20052;-77
2024/01/22 00:51:27;;;;;;;15.02;10.50;;;20.50;41.80;;;;;;5109398;28;20048;-77
2024/01/22 00:53:53;;;;;;;16.27;9.57;;;20.40;41.70;;;;;;5096845;28;20036;-77
2024/01/22 00:56:20;;;;;;;13.55;10.45;;;20.40;41.60;;;;;;5088832;28;20043;-77
2024/01/22 00:58:47;;;;;;;16.80;10.25;;;20.50;41.70;;;;;;5088720;28;20044;-77
2024/01/22 01:01:13;;;;;;;13.93;9.25;;;20.40;41.60;;;;;;5071662;28;20227;-77
2024/01/22 01:03:39;;;;;;;15.23;10.13;;;20.50;41.60;;;;;;5088768;28;20078;-78
2024/01/22 01:06:05;;;;;;;13.32;9.98;;;20.50;41.60;;;;;;5088940;28;20051;-77
2024/01/22 01:08:31;;;;;;;13.65;9.60;;;20.50;41.50;;;;;;5071921;28;20044;-77
2024/01/22 01:10:58;;;;;;;15.55;9.23;;;20.60;41.50;;;;;;5088577;28;20036;-78
2024/01/22 01:13:24;;;;;;;14.88;9.48;;;20.50;41.40;;;;;;5071346;28;20115;-77
2024/01/22 01:15:50;;;;;;;13.60;9.13;;;20.60;41.40;;;;;;5088381;28;20047;-77
2024/01/22 01:18:16;;;;;;;13.27;8.75;;;20.60;41.30;;;;;;5071793;28;20045;-76
2024/01/22 01:20:42;;;;;;;11.80;9.00;;;20.70;41.40;;;;;;5106448;28;20051;-77
2024/01/22 01:23:08;;;;;;;15.07;9.55;;;20.60;41.30;;;;;;5093158;28;20027;-77
2024/01/22 01:25:36;;;;;;;14.73;9.57;;;20.70;41.30;;;;;;5111477;28;20088;-78
2024/01/22 01:28:02;;;;;;;12.98;9.40;;;20.70;41.30;;;;;;5092784;28;20048;-77
2024/01/22 01:30:28;;;;;;;14.10;9.60;;;20.60;41.10;;;;;;5111551;28;20159;-78
2024/01/22 01:32:54;;;;;;;14.52;9.95;;;20.80;41.20;;;;;;5112282;28;20042;-78
2024/01/22 01:35:21;;;;;;;15.45;10.63;;;20.70;41.10;;;;;;5052123;28;20049;-78
2024/01/22 01:37:47;;;;;;;16.55;11.50;;;20.70;41.10;;;;;;5052425;28;20045;-77
2024/01/22 01:40:13;;;;;;;16.35;10.63;;;20.70;41.10;;;;;;5019275;28;20079;-77
2024/01/22 01:42:43;;;;;;;13.93;9.82;;;20.70;41.10;;;;;;5051849;28;20045;-77
2024/01/22 01:45:16;;;;;;;15.48;10.43;;;20.70;41.00;;;;;;5051911;28;20037;-78
2024/01/22 01:47:47;;;;;;;13.88;10.07;;;20.70;41.00;;;;;;5051789;28;20440;-78
2024/01/22 01:50:15;;;;;;;14.77;9.50;;;20.80;41.00;;;;;;5052135;28;20145;-76
2024/01/22 01:52:43;;;;;;;11.88;8.18;;;20.60;40.90;;;;;;5052066;28;20508;-78
2024/01/22 01:55:10;;;;;;;15.50;9.02;;;20.70;41.10;;;;;;5035151;28;20540;-77
2024/01/22 01:57:38;;;;;;;17.75;9.45;;;20.60;41.00;;;;;;5051715;28;20033;-77
2024/01/22 02:00:09;;;;;;;13.80;9.75;;;20.70;41.10;;;;;;5035075;28;20033;-78
2024/01/22 02:02:39;;;;;;;13.32;10.05;;;20.60;41.10;;;;;;5051637;28;20075;-77
2024/01/22 02:05:06;;;;;;;13.90;9.60;;;20.70;41.20;;;;;;5051543;28;20072;-77
2024/01/22 02:07:32;;;;;;;13.75;9.50;;;20.50;41.10;;;;;;5091443;28;20105;-77
2024/01/22 02:09:58;;;;;;;16.73;10.77;;;20.50;41.20;;;;;;5091153;28;20043;-77
2024/01/22 02:12:25;;;;;;;13.50;8.88;;;20.50;41.20;;;;;;5091287;28;20035;-77
2024/01/22 02:14:51;;;;;;;13.60;9.13;;;20.60;41.10;;;;;;5095558;28;20039;-77
2024/01/22 02:17:18;;;;;;;16.85;10.07;;;20.60;41.10;;;;;;5114442;28;20061;-78
2024/01/22 02:19:44;;;;;;;15.32;9.38;;;20.60;41.10;;;;;;5114238;28;20027;-78
2024/01/22 02:22:10;;;;;;;12.70;9.30;;;20.50;41.00;;;;;;5096172;28;20032;-77
2024/01/22 02:24:36;;;;;;;16.20;9.85;;;20.50;41.00;;;;;;5114629;28;20478;-78
2024/01/22 02:27:03;;;;;;;13.45;9.23;;;20.60;41.00;;;;;;5114767;28;20042;-78
2024/01/22 02:29:29;;;;;;;12.73;9.50;;;20.60;40.90;;;;;;5096364;28;20166;-78
2024/01/22 02:31:55;;;;;;;16.50;9.52;;;20.60;40.90;;;;;;5114507;28;20085;-78
2024/01/22 02:34:21;;;;;;;13.98;10.10;;;20.60;40.80;;;;;;5070949;28;20044;-78
2024/01/22 02:36:47;;;;;;;14.57;9.93;;;20.60;40.80;;;;;;5071303;28;20032;-78
2024/01/22 02:39:14;;;;;;;13.57;9.20;;;20.70;40.90;;;;;;5071080;28;20179;-76
2024/01/22 02:41:41;;;;;;;13.77;9.57;;;20.60;40.80;;;;;;5070945;28;20102;-75
2024/01/22 02:44:07;;;;;;;14.07;10.00;;;20.70;40.80;;;;;;5075301;28;20036;-77
2024/01/22 02:46:33;;;;;;;14.52;9.90;;;20.60;40.70;;;;;;5091109;28;20036;-77
2024/01/22 02:48:59;;;;;;;12.98;9.52;;;20.50;40.80;;;;;;5090859;28;20040;-76
2024/01/22 02:51:26;;;;;;;15.82;10.63;;;20.60;40.80;;;;;;5069195;28;20043;-77
2024/01/22 02:53:53;;;;;;;13.15;9.60;;;20.60;40.90;;;;;;5071082;28;20451;-76
2024/01/22 02:56:20;;;;;;;12.90;9.82;;;20.60;41.00;;;;;;5071039;28;20418;-75
2024/01/22 02:58:46;;;;;;;13.60;9.48;;;20.50;40.90;;;;;;5070602;28;20105;-77
2024/01/22 03:01:12;;;;;;;15.93;10.07;;;20.40;40.90;;;;;;5071329;28;20036;-78
2024/01/22 03:03:40;;;;;;;15.80;9.93;;;20.40;40.90;;;;;;5070878;28;20040;-78
2024/01/22 03:06:07;;;;;;;14.63;10.20;;;20.40;41.00;;;;;;5070726;28;20058;-78
2024/01/22 03:08:34;;;;;;;14.88;10.85;;;20.40;41.00;;;;;;5070980;28;20124;-77
2024/01/22 03:11:01;;;;;;;16.38;11.00;;;20.40;41.10;;;;;;5078152;28;20058;-77
2024/01/22 03:13:27;;;;;;;16.95;11.75;;;20.40;41.00;;;;;;5113357;28;20031;-76
2024/01/22 03:15:53;;;;;;;15.80;10.75;;;20.40;41.00;;;;;;5113466;28;20035;-77
2024/01/22 03:18:19;;;;;;;19.70;11.80;;;20.40;40.90;;;;;;5113398;28;20031;-77
2024/01/22 03:20:45;;;;;;;16.73;11.88;;;20.50;41.00;;;;;;5113442;28;20034;-77
2024/01/22 03:23:11;;;;;;;16.10;11.95;;;20.50;40.90;;;;;;5113807;28;20035;-77
2024/01/22 03:25:38;;;;;;;17.30;11.73;;;20.50;40.90;;;;;;5113250;28;20031;-77
2024/01/22 03:28:04;;;;;;;18.55;12.02;;;20.50;40.90;;;;;;5113227;28;20048;-77
2024/01/22 03:30:30;;;;;;;22.27;13.48;;;20.50;40.90;;;;;;5113432;28;20058;-78
2024/01/22 03:32:57;;;;;;;18.83;12.18;;;20.50;40.90;;;;;;5113320;28;20036;-78
2024/01/22 03:35:23;;;;;;;17.00;11.45;;;20.50;40.80;;;;;;5094755;28;20048;-77
2024/01/22 03:37:49;;;;;;;19.40;11.75;;;20.50;40.80;;;;;;5094773;28;20112;-78
2024/01/22 03:40:15;;;;;;;18.95;11.93;;;20.60;40.80;;;;;;5112872;28;20115;-77
2024/01/22 03:42:41;;;;;;;18.98;12.20;;;20.60;40.70;;;;;;5113282;28;20043;-78
2024/01/22 03:45:07;;;;;;;17.25;12.13;;;20.50;40.70;;;;;;5113231;28;20172;-78
2024/01/22 03:47:33;;;;;;;19.00;11.38;;;20.50;40.70;;;;;;5112915;28;20379;-77
2024/01/22 03:50:00;;;;;;;16.02;10.85;;;20.60;40.80;;;;;;5112625;28;20398;-77
2024/01/22 03:52:26;;;;;;;19.23;11.88;;;20.50;40.90;;;;;;5112599;28;20107;-78
2024/01/22 03:54:53;;;;;;;16.50;11.02;;;20.40;40.80;;;;;;5112593;28;20028;-79
2024/01/22 03:57:19;;;;;;;19.15;11.75;;;20.30;40.90;;;;;;5111867;28;20028;-78
2024/01/22 03:59:46;;;;;;;18.75;11.75;;;20.30;41.00;;;;;;5112839;28;20044;-77
2024/01/22 04:02:12;;;;;;;16.02;11.55;;;20.40;41.00;;;;;;5112623;28;20043;-77
2024/01/22 04:04:39;;;;;;;19.52;11.55;;;20.30;41.00;;;;;;5113015;28;20031;-77
2024/01/22 04:07:05;;;;;;;18.23;11.68;;;20.50;41.00;;;;;;5112587;28;20080;-77
2024/01/22 04:09:31;;;;;;;16.17;11.35;;;20.40;40.90;;;;;;5112952;28;20134;-78
2024/01/22 04:11:57;;;;;;;16.40;11.23;;;20.40;40.90;;;;;;5112635;28;20035;-78
2024/01/22 04:14:23;;;;;;;17.60;10.57;;;20.60;40.90;;;;;;5093998;28;20054;-78
2024/01/22 04:16:50;;;;;;;20.25;11.65;;;20.40;40.80;;;;;;5112868;28;20059;-78
2024/01/22 04:19:16;;;;;;;17.05;10.38;;;20.40;40.80;;;;;;5094370;28;20039;-77
2024/01/22 04:21:45;;;;;;;16.40;10.68;;;20.40;40.70;;;;;;5112566;28;20084;-77
2024/01/22 04:24:12;;;;;;;16.60;10.73;;;20.50;40.80;;;;;;5112312;28;20039;-78
2024/01/22 04:26:38;;;;;;;14.98;10.82;;;20.50;40.70;;;;;;5111959;28;20477;-77
2024/01/22 04:29:04;;;;;;;14.02;10.50;;;20.50;40.70;;;;;;5111758;28;20540;-77
2024/01/22 04:31:31;;;;;;;15.25;11.35;;;20.60;40.70;;;;;;5111968;28;20395;-77
2024/01/22 04:33:57;;;;;;;16.40;10.65;;;20.60;40.70;;;;;;5112217;28;20487;-78
2024/01/22 04:36:23;;;;;;;18.05;11.23;;;20.60;40.70;;;;;;5111838;28;20028;-78
2024/01/22 04:38:51;;;;;;;20.33;10.80;;;20.50;40.80;;;;;;5079150;28;20119;-78
2024/01/22 04:41:17;;;;;;;15.73;10.60;;;20.50;40.70;;;;;;5127185;28;20023;-76
2024/01/22 04:43:43;;;;;;;17.67;10.77;;;20.40;41.30;;;;;;5132578;28;20042;-78
2024/01/22 04:46:10;;;;;;;16.92;10.35;;;20.60;42.20;;;;;;5114073;28;20114;-77
2024/01/22 04:48:37;;;;;;;18.05;11.13;;;20.60;41.00;;;;;;5113973;27;20039;-77
2024/01/22 04:51:04;;;;;;;20.45;12.57;;;20.70;40.80;;;;;;5132443;27;20079;-78
2024/01/22 04:53:30;;;;;;;23.63;13.75;;;20.50;40.80;;;;;;5094504;28;20055;-77
2024/01/22 04:55:56;;;;;;;31.70;16.55;;;20.50;40.80;;;;;;5093517;28;20383;-77
2024/01/22 04:58:22;;;;;;;29.02;16.83;;;20.40;40.80;;;;;;5093669;28;20035;-77
2024/01/22 05:00:48;;;;;;;23.40;15.15;;;20.40;40.90;;;;;;5093541;28;20078;-78
2024/01/22 05:03:14;;;;;;;25.27;15.27;;;20.30;40.90;;;;;;5077100;28;20450;-77
2024/01/22 05:05:40;;;;;;;28.20;15.73;;;20.20;40.80;;;;;;5111705;28;20066;-78
2024/01/22 05:08:06;;;;;;;30.15;16.13;;;20.30;41.90;;;;;;5113222;28;20475;-78
2024/01/22 05:10:32;;;;;;;29.95;15.77;;;20.40;41.30;;;;;;5115781;28;20028;-77
2024/01/22 05:12:58;;;;;;;28.17;16.33;;;20.40;41.40;;;;;;5115583;28;20047;-77
2024/01/22 05:15:25;;;;;;;29.02;16.65;;;20.40;41.10;;;;;;5115341;28;20101;-78
2024/01/22 05:17:51;;;;;;;27.88;16.88;;;20.50;41.20;;;;;;5115512;28;20495;-76
2024/01/22 05:20:17;;;;;;;29.63;17.25;;;20.50;41.10;;;;;;5115250;28;20035;-77
2024/01/22 05:22:45;;;;;;;25.85;15.82;;;20.40;41.00;;;;;;5097393;28;20391;-77
2024/01/22 05:25:11;;;;;;;26.40;16.42;;;20.60;41.10;;;;;;5115432;28;20024;-76
2024/01/22 05:27:37;;;;;;;29.17;17.30;;;20.50;41.00;;;;;;5115492;28;20507;-77
2024/01/22 05:30:04;;;;;;;29.40;16.90;;;20.50;40.90;;;;;;5115480;28;20027;-77
2024/01/22 05:32:32;;;;;;;27.58;16.05;;;20.50;41.00;;;;;;5116015;28;20035;-77
2024/01/22 05:34:58;;;;;;;27.15;16.60;;;20.50;41.00;;;;;;5115021;28;20028;-78
2024/01/22 05:37:24;;;;;;;23.23;15.00;;;20.60;40.80;;;;;;5115354;28;20106;-77
2024/01/22 05:39:50;;;;;;;23.83;14.75;;;20.60;40.90;;;;;;5079984;28;20172;-77
2024/01/22 05:42:16;;;;;;;28.63;15.93;;;20.50;40.90;;;;;;5114960;28;20062;-77
2024/01/22 05:44:42;;;;;;;27.70;16.35;;;20.50;40.90;;;;;;5115134;28;20042;-77
2024/01/22 05:47:08;;;;;;;26.77;16.08;;;20.50;41.00;;;;;;5096632;28;20093;-78
2024/01/22 05:49:34;;;;;;;23.77;15.95;;;20.40;41.00;;;;;;5114828;28;20034;-77
2024/01/22 05:52:01;;;;;;;25.08;16.13;;;20.50;41.10;;;;;;5114893;28;20092;-78
2024/01/22 05:54:27;;;;;;;29.30;16.90;;;20.40;41.00;;;;;;5115264;28;20023;-77
2024/01/22 05:56:54;;;;;;;26.60;16.88;;;20.40;41.00;;;;;;5114914;28;20034;-78
2024/01/22 05:59:20;;;;;;;28.15;17.90;;;20.40;40.90;;;;;;5114731;28;20443;-76
2024/01/22 06:01:46;;;;;;;34.92;18.15;;;20.40;41.00;;;;;;5114836;28;20118;-78
2024/01/22 06:04:12;;;;;;;29.63;18.50;;;20.40;41.00;;;;;;5096613;28;20032;-77
2024/01/22 06:06:38;;;;;;;31.80;17.48;;;20.30;41.00;;;;;;5114455;28;20067;-78
2024/01/22 06:09:04;;;;;;;30.42;18.70;;;20.30;41.00;;;;;;5114371;28;20533;-78
2024/01/22 06:11:30;;;;;;;27.73;17.35;;;20.20;40.80;;;;;;5114441;28;20027;-76
2024/01/22 06:13:56;;;;;;;25.35;16.42;;;20.30;40.90;;;;;;5096201;28;20115;-78
2024/01/22 06:16:23;;;;;;;24.13;15.65;;;20.20;40.80;;;;;;5096014;28;20142;-77
2024/01/22 06:18:49;;;;;;;24.73;15.70;;;20.50;41.50;;;;;;5114276;28;20519;-77
2024/01/22 06:21:15;;;;;;;30.25;18.00;;;20.60;40.80;;;;;;5113632;28;20098;-78
2024/01/22 06:23:41;;;;;;;29.30;18.35;;;20.50;40.40;;;;;;5096129;28;20088;-77
2024/01/22 06:26:09;;;;;;;29.63;19.23;;;20.40;40.50;;;;;;5114411;28;20391;-76
2024/01/22 06:28:35;;;;;;;26.60;17.58;;;20.40;40.50;;;;;;5114708;28;20059;-77
2024/01/22 06:31:02;;;;;;;28.17;18.63;;;20.50;40.70;;;;;;5114524;28;20452;-77
2024/01/22 06:33:29;;;;;;;34.25;19.77;;;20.30;40.60;;;;;;5114946;28;20071;-77
2024/01/22 06:35:55;;;;;;;30.90;20.73;;;20.40;40.50;;;;;;5114237;28;20027;-77
2024/01/22 06:38:21;;;;;;;34.00;21.67;;;20.40;40.60;;;;;;5114669;28;20039;-78
2024/01/22 06:40:47;;;;;;;33.15;20.73;;;20.30;40.70;;;;;;5114574;28;20032;-77
2024/01/22 06:43:14;;;;;;;30.17;20.48;;;20.20;40.60;;;;;;5114370;28;20494;-79
2024/01/22 06:45:40;;;;;;;31.95;19.95;;;20.20;40.70;;;;;;5116549;27;20031;-78
2024/01/22 06:48:07;;;;;;;31.55;18.25;;;20.20;40.60;;;;;;5096212;28;20118;-78
2024/01/22 06:50:33;;;;;;;27.48;18.27;;;20.20;40.60;;;;;;5114413;28;20150;-76
2024/01/22 06:52:59;;;;;;;29.92;17.65;;;20.20;40.70;;;;;;5095898;28;20028;-77
2024/01/22 06:55:25;;;;;;;28.77;17.33;;;20.10;40.80;;;;;;5113832;28;20096;-77
2024/01/22 06:57:51;;;;;;;30.20;17.35;;;20.20;40.80;;;;;;5114057;28;20043;-77
2024/01/22 07:00:19;;;;;;;28.70;17.20;;;20.10;40.80;;;;;;5114008;28;20154;-78
2024/01/22 07:02:48;;;;;;;24.85;17.70;;;20.10;40.80;;;;;;5095201;28;20147;-77
2024/01/22 07:05:15;;;;;;;30.75;17.25;;;20.10;40.80;;;;;;5113235;28;20140;-77
2024/01/22 07:07:42;;;;;;;27.85;17.08;;;20.10;40.80;;;;;;5113605;28;20477;-75
2024/01/22 07:10:09;;;;;;;25.40;15.32;;;20.10;40.80;;;;;;5113534;28;20088;-76
2024/01/22 07:12:36;;;;;;;24.27;15.85;;;20.10;40.70;;;;;;5113062;28;20035;-78
2024/01/22 07:15:04;;;;;;;26.33;15.60;;;20.20;40.70;;;;;;5094684;28;20046;-78
2024/01/22 07:17:30;;;;;;;26.73;16.10;;;20.20;40.50;;;;;;5112873;28;20036;-78
2024/01/22 07:19:56;;;;;;;23.25;16.00;;;20.20;40.50;;;;;;5112867;28;20057;-77
2024/01/22 07:22:22;;;;;;;26.20;16.40;;;20.30;40.60;;;;;;5112899;28;20027;-77
2024/01/22 07:24:48;;;;;;;26.33;16.38;;;20.30;40.60;;;;;;5112627;28;20027;-77
2024/01/22 07:27:15;;;;;;;23.20;14.38;;;20.40;40.60;;;;;;5032560;28;20041;-77
2024/01/22 07:29:42;;;;;;;22.45;14.93;;;20.30;40.60;;;;;;5049314;28;20088;-77
2024/01/22 07:32:09;;;;;;;25.13;15.50;;;20.30;40.50;;;;;;5049443;28;20073;-76
2024/01/22 07:34:35;;;;;;;28.02;16.88;;;20.20;40.40;;;;;;5049650;28;20045;-78
2024/01/22 07:37:01;;;;;;;24.85;16.02;;;20.30;40.60;;;;;;5049310;28;20397;-78
2024/01/22 07:39:27;;;;;;;25.27;16.45;;;20.20;40.50;;;;;;5049285;28;20051;-78
2024/01/22 07:41:53;;;;;;;26.95;16.50;;;20.20;40.50;;;;;;5065942;28;20041;-77
2024/01/22 07:44:19;;;;;;;27.88;16.33;;;20.20;40.50;;;;;;5049200;28;20041;-77
2024/01/22 07:46:45;;;;;;;26.20;16.58;;;20.20;40.60;;;;;;5049037;28;20040;-77
2024/01/22 07:49:11;;;;;;;27.27;15.77;;;20.20;40.60;;;;;;5049127;28;20037;-77
2024/01/22 07:51:37;;;;;;;24.42;16.13;;;20.20;40.60;;;;;;5048938;28;20144;-76
2024/01/22 07:54:05;;;;;;;26.95;16.80;;;20.20;40.60;;;;;;5066050;28;20264;-77
2024/01/22 07:56:31;;;;;;;24.05;14.60;;;20.10;40.70;;;;;;5048865;28;20160;-77
2024/01/22 07:58:57;;;;;;;24.58;15.98;;;20.10;40.70;;;;;;5032273;28;20041;-74
2024/01/22 08:01:24;;;;;;;20.90;14.35;;;20.20;40.70;;;;;;5049082;28;20029;-78
2024/01/22 08:03:50;;;;;;;24.33;14.45;;;20.10;40.70;;;;;;5075393;28;20044;-78
2024/01/22 08:06:16;;;;;;;22.83;14.98;;;20.20;40.70;;;;;;5111930;28;20024;-77
2024/01/22 08:08:43;;;;;;;21.00;14.10;;;20.20;40.60;;;;;;5112436;28;20043;-77
2024/01/22 08:11:09;;;;;;;22.92;14.52;;;20.30;40.70;;;;;;5112424;28;20035;-77
2024/01/22 08:13:37;;;;;;;22.33;14.40;;;20.30;40.60;;;;;;5093741;28;20027;-77
2024/01/22 08:16:03;;;;;;;21.88;14.30;;;20.40;40.60;;;;;;5112571;28;20122;-78
2024/01/22 08:18:30;;;;;;;20.70;15.20;;;20.20;40.50;;;;;;5093865;28;20786;-78
2024/01/22 08:20:56;;;;;;;21.98;15.38;;;20.40;40.60;;;;;;5112339;28;20501;-78
2024/01/22 08:23:22;;;;;;;19.63;13.43;;;20.30;40.50;;;;;;5093633;28;20031;-78
2024/01/22 08:25:48;;;;;;;23.98;13.73;;;20.40;40.50;;;;;;5111739;28;20054;-78
2024/01/22 08:28:15;;;;;;;23.80;14.60;;;20.30;40.50;;;;;;5112156;28;20051;-77
2024/01/22 08:30:41;;;;;;;21.85;15.10;;;20.40;40.40;;;;;;5111909;28;20062;-75
2024/01/22 08:33:08;;;;;;;24.45;15.30;;;20.40;40.40;;;;;;5094025;28;20039;-77
2024/01/22 08:35:34;;;;;;;19.48;14.43;;;20.40;40.50;;;;;;5093761;28;20031;-77
2024/01/22 08:38:00;;;;;;;24.13;15.60;;;20.40;40.50;;;;;;5112281;28;20057;-78
2024/01/22 08:40:27;;;;;;;24.38;14.95;;;20.50;40.60;;;;;;5092348;28;20118;-77
2024/01/22 08:42:54;;;;;;;20.98;14.73;;;20.30;40.50;;;;;;5096318;28;20035;-78
2024/01/22 08:45:22;;;;;;;21.90;14.45;;;20.30;40.50;;;;;;5111579;28;20039;-78
2024/01/22 08:47:49;;;;;;;24.35;15.65;;;20.30;40.50;;;;;;5111629;28;20040;-77
2024/01/22 08:50:21;;;;;;;29.15;15.75;;;20.40;40.50;;;;;;5111646;28;20097;-77
2024/01/22 08:52:52;;;;;;;28.23;16.00;;;20.30;40.50;;;;;;5076971;28;20047;-78
2024/01/22 08:55:20;;;;;;;24.77;16.05;;;20.30;40.50;;;;;;5111819;28;20535;-78
2024/01/22 08:57:47;;;;;;;27.85;16.83;;;20.30;40.50;;;;;;5093406;28;20074;-78
2024/01/22 09:00:14;;;;;;;24.13;14.55;;;20.40;40.50;;;;;;5093513;28;20085;-77
2024/01/22 09:02:41;;;;;;;23.20;15.35;;;20.30;40.50;;;;;;5111518;28;20471;-78
2024/01/22 09:05:09;;;;;;;23.98;15.70;;;20.40;40.60;;;;;;5093564;28;20425;-78
2024/01/22 09:07:36;;;;;;;26.27;15.73;;;20.20;40.40;;;;;;5111264;28;20110;-77
2024/01/22 09:10:07;;;;;;;23.85;15.38;;;20.30;40.50;;;;;;5111839;28;20028;-77
2024/01/22 09:12:36;;;;;;;23.63;13.85;;;20.30;40.40;;;;;;5111694;28;20036;-78
2024/01/22 09:15:06;;;;;;;22.83;14.18;;;20.50;40.50;;;;;;5111615;28;20436;-77
2024/01/22 09:17:36;;;;;;;22.67;13.93;;;20.40;40.40;;;;;;5111307;28;20509;-78
2024/01/22 09:20:01;;;;;;;22.88;15.48;;;20.40;40.30;;;;;;5076803;28;20463;-78
2024/01/22 09:22:29;;;;;;;22.98;15.35;;;20.40;40.30;;;;;;5076527;28;20066;-77
2024/01/22 09:24:55;;;;;;;24.08;13.95;;;20.60;40.40;;;;;;5111521;28;20036;-77
2024/01/22 09:27:21;;;;;;;21.70;14.15;;;20.60;40.30;;;;;;5093018;28;20028;-78
2024/01/22 09:29:47;;;;;;;24.42;14.15;;;20.60;40.30;;;;;;5048081;28;20053;-78
2024/01/22 09:32:15;;;;;;;20.90;13.20;;;20.50;40.30;;;;;;5048294;28;20114;-77
2024/01/22 09:34:41;;;;;;;25.27;13.90;;;20.60;40.30;;;;;;5048296;28;20053;-78
2024/01/22 09:37:07;;;;;;;21.38;13.55;;;20.50;40.40;;;;;;5048221;28;20033;-78
2024/01/22 09:39:33;;;;;;;21.52;14.35;;;20.60;40.40;;;;;;5048180;28;20075;-78
2024/01/22 09:41:59;;;;;;;20.88;13.30;;;20.40;40.30;;;;;;5048499;28;20052;-78
2024/01/22 09:44:26;;;;;;;19.38;12.35;;;20.60;40.40;;;;;;5048349;28;20065;-77
2024/01/22 09:46:53;;;;;;;17.63;11.85;;;20.60;40.40;;;;;;5048018;28;20045;-77
2024/01/22 09:49:19;;;;;;;17.13;11.85;;;20.40;40.40;;;;;;5047982;28;20037;-77
2024/01/22 09:51:46;;;;;;;19.17;12.48;;;20.60;40.40;;;;;;5031455;28;20171;-78
2024/01/22 09:54:18;;;;;;;19.70;12.48;;;20.60;40.30;;;;;;5048071;28;20835;-78
2024/01/22 09:56:52;;;;;;;16.52;10.82;;;20.50;40.40;;;;;;5051398;28;20083;-78
2024/01/22 09:59:21;;;;;;;20.45;12.77;;;20.60;40.40;;;;;;5051744;28;20094;-78
2024/01/22 10:01:48;;;;;;;17.25;11.02;;;20.60;40.30;;;;;;5091267;28;20475;-77
2024/01/22 10:04:15;;;;;;;18.23;11.07;;;20.60;40.30;;;;;;5096762;28;20035;-78
2024/01/22 10:06:43;;;;;;;11.43;8.65;;;20.60;40.30;;;;;;5114436;28;20816;-77
2024/01/22 10:09:10;;;;;;;14.95;8.00;;;20.70;40.40;;;;;;5114738;28;20036;-78
2024/01/22 10:11:36;;;;;;;12.13;8.13;;;20.70;40.30;;;;;;5114541;28;20159;-77
2024/01/22 10:14:02;;;;;;;11.70;6.40;;;20.60;40.20;;;;;;5114447;28;20042;-77
2024/01/22 10:16:29;;;;;;;9.18;6.40;;;20.70;40.30;;;;;;5114289;28;20050;-78
2024/01/22 10:19:00;;;;;;;11.02;7.47;;;20.80;40.30;;;;;;5096295;28;20059;-79
2024/01/22 10:21:27;;;;;;;11.02;7.22;;;20.90;40.30;;;;;;5114077;28;20024;-77
2024/01/22 10:23:56;;;;;;;9.32;6.25;;;20.90;40.30;;;;;;5113995;28;20539;-78
2024/01/22 10:26:22;;;;;;;8.95;5.90;;;20.90;40.30;;;;;;5114090;28;20040;-77
2024/01/22 10:28:48;;;;;;;6.85;6.15;;;20.90;40.30;;;;;;5114002;28;20051;-78
2024/01/22 10:31:14;;;;;;;11.57;8.25;;;20.80;40.20;;;;;;5114257;28;20395;-79
2024/01/22 10:33:41;;;;;;;9.90;5.75;;;20.90;40.20;;;;;;5113813;28;20036;-77
2024/01/22 10:36:15;;;;;;;10.20;6.15;;;20.80;40.20;;;;;;5113844;27;20047;-76
2024/01/22 10:38:42;;;;;;;8.32;5.43;;;20.80;40.20;;;;;;5133482;27;20050;-78
2024/01/22 10:41:18;;;;;;;11.93;6.55;;;20.80;40.20;;;;;;5134378;27;20031;-78
2024/01/22 10:43:45;;;;;;;8.98;5.35;;;20.80;40.30;;;;;;5134230;27;20064;-77
2024/01/22 10:46:12;;;;;;;7.10;5.38;;;20.80;40.30;;;;;;5134735;27;20134;-78
2024/01/22 10:48:42;;;;;;;7.35;5.57;;;20.80;40.30;;;;;;5115690;27;20107;-78
2024/01/22 10:51:08;;;;;;;8.27;5.97;;;20.90;40.40;;;;;;5134227;27;20035;-78
2024/01/22 10:53:36;;;;;;;7.80;5.75;;;20.90;40.30;;;;;;5133965;27;20071;-78
2024/01/22 10:56:09;;;;;;;9.93;4.82;;;20.90;40.40;;;;;;5134446;27;20387;-78
2024/01/22 10:58:43;;;;;;;9.35;6.15;;;20.90;40.40;;;;;;5134010;27;20106;-78
2024/01/22 11:01:22;;;;;;;11.50;6.47;;;20.90;40.40;;;;;;5115542;27;20035;-78
2024/01/22 11:03:50;;;;;;;10.57;5.88;;;20.90;40.40;;;;;;5115796;27;20763;-78
2024/01/22 11:06:18;;;;;;;8.77;6.50;;;21.00;40.30;;;;;;5133318;27;20019;-77
2024/01/22 11:08:56;;;;;;;8.80;5.93;;;21.00;40.30;;;;;;5133819;27;20035;-78
2024/01/22 11:11:25;;;;;;;11.20;7.43;;;21.00;40.30;;;;;;5133716;27;20038;-77
2024/01/22 11:13:55;;;;;;;10.02;7.20;;;21.00;40.30;;;;;;5110097;28;20179;-78
2024/01/22 11:16:22;;;;;;;10.30;5.60;;;20.90;40.30;;;;;;5113137;28;20069;-78
2024/01/22 11:18:55;;;;;;;10.63;6.50;;;21.00;40.20;;;;;;5112843;28;20031;-78
2024/01/22 11:21:21;;;;;;;8.52;6.45;;;21.00;40.30;;;;;;5094541;28;20035;-78
2024/01/22 11:24:10;;;;;;;8.20;6.15;;;21.00;40.30;;;;;;5113182;28;20375;-78
2024/01/22 11:26:42;;;;;;;12.43;6.25;;;21.10;40.30;;;;;;5094441;28;20027;-78
2024/01/22 11:29:09;;;;;;;11.85;6.68;;;21.10;40.20;;;;;;5112499;28;20056;-78
2024/01/22 11:31:37;;;;;;;13.00;7.57;;;21.10;40.20;;;;;;5112982;28;20088;-77
2024/01/22 11:34:03;;;;;;;8.05;6.30;;;21.10;40.30;;;;;;5112566;28;20024;-78
2024/01/22 11:36:48;;;;;;;11.30;6.97;;;21.10;40.30;;;;;;5094355;28;20039;-77
2024/01/22 11:39:33;;;;;;;9.98;6.55;;;21.10;40.30;;;;;;5112861;28;20111;-78
2024/01/22 11:42:17;;;;;;;7.68;5.57;;;21.00;40.30;;;;;;5112936;28;20088;-78
2024/01/22 11:44:46;;;;;;;10.45;6.18;;;21.10;40.40;;;;;;5112791;28;20028;-78
2024/01/22 11:47:12;;;;;;;7.68;5.75;;;21.00;40.30;;;;;;5112075;28;20027;-78
2024/01/22 11:49:39;;;;;;;9.23;6.03;;;21.00;40.30;;;;;;5112494;28;20040;-78
2024/01/22 11:52:11;;;;;;;10.50;6.70;;;20.90;40.40;;;;;;5112369;28;20058;-78
2024/01/22 11:54:39;;;;;;;9.18;7.38;;;21.00;40.30;;;;;;5112544;28;20092;-78
2024/01/22 11:57:05;;;;;;;13.80;8.02;;;21.00;40.30;;;;;;5112299;28;20531;-77
2024/01/22 11:59:31;;;;;;;9.23;5.90;;;21.00;40.40;;;;;;5112181;28;20040;-78
2024/01/22 12:02:11;;;;;;;8.77;5.68;;;21.00;40.40;;;;;;5112295;28;20367;-77
2024/01/22 12:04:37;;;;;;;11.32;7.20;;;21.00;40.30;;;;;;5112095;28;20028;-78
2024/01/22 12:07:04;;;;;;;10.95;6.75;;;21.00;40.30;;;;;;5112318;28;20035;-78
2024/01/22 12:09:36;;;;;;;11.55;6.60;;;21.10;40.40;;;;;;5112305;28;20073;-78
2024/01/22 12:12:04;;;;;;;7.55;5.97;;;21.10;40.30;;;;;;5112235;28;20474;-78
2024/01/22 12:14:30;;;;;;;6.90;4.78;;;21.20;40.30;;;;;;5111967;28;20123;-78
2024/01/22 12:17:03;;;;;;;11.48;6.70;;;21.10;40.30;;;;;;5111660;28;20046;-78
2024/01/22 12:19:30;;;;;;;10.55;6.50;;;21.20;40.20;;;;;;5111578;28;20055;-78
2024/01/22 12:21:57;;;;;;;11.02;6.68;;;21.10;40.20;;;;;;5093825;28;20091;-78
2024/01/22 12:24:23;;;;;;;10.38;6.65;;;21.20;40.30;;;;;;5092359;28;20502;-77
2024/01/22 12:26:55;;;;;;;6.90;5.63;;;21.30;40.40;;;;;;5111729;28;20035;-78
2024/01/22 12:29:23;;;;;;;11.18;6.25;;;21.30;40.40;;;;;;5092789;28;20051;-78